Time;durP1;ratioP1;P1;durP2;ratioP2;P2;SDS_P1;SDS_P2;PMS_P1;PMS_P2;Temp;Humidity;BMP_temperature;BMP_pressure;BME280_temperature;BME280_humidity;BME280_pressure;Samples;Min_cycle;Max_cycle;Signal;HPM_P1;HPM_P2
2024/03/13 00:00:16;;;;;;;2.85;2.45;;;21.20;71.30;;;;;;5072134;27;20671;-65
2024/03/13 00:02:45;;;;;;;1.90;1.80;;;21.20;71.30;;;;;;5073814;27;20284;-65
2024/03/13 00:05:12;;;;;;;2.35;2.15;;;21.20;71.30;;;;;;5076656;27;20936;-65
2024/03/13 00:07:41;;;;;;;3.40;2.30;;;21.10;71.20;;;;;;5073285;27;20789;-65
2024/03/13 00:10:09;;;;;;;1.65;1.40;;;21.10;72.00;;;;;;5073948;27;20266;-65
2024/03/13 00:12:36;;;;;;;1.90;1.77;;;21.10;71.20;;;;;;5071004;27;20667;-65
2024/03/13 00:15:05;;;;;;;1.65;1.50;;;20.90;71.00;;;;;;5076973;27;20196;-65
2024/03/13 00:17:32;;;;;;;1.65;1.42;;;21.10;71.20;;;;;;5074363;27;20212;-66
2024/03/13 00:19:59;;;;;;;2.45;2.13;;;21.10;71.20;;;;;;5074804;27;20197;-65
2024/03/13 00:22:26;;;;;;;2.40;2.20;;;21.10;71.20;;;;;;5083778;27;20208;-64
2024/03/13 00:24:56;;;;;;;2.15;1.95;;;21.10;71.40;;;;;;5085065;28;20205;-63
2024/03/13 00:27:24;;;;;;;2.75;2.28;;;21.10;71.50;;;;;;5084018;28;20273;-64
2024/03/13 00:29:51;;;;;;;1.58;1.48;;;21.10;71.70;;;;;;5085828;28;20193;-64
2024/03/13 00:32:23;;;;;;;2.20;2.00;;;21.10;71.50;;;;;;5083909;28;20236;-63
2024/03/13 00:34:50;;;;;;;1.90;1.80;;;21.10;71.70;;;;;;5083833;28;20196;-64
2024/03/13 00:37:17;;;;;;;1.95;1.75;;;21.00;71.50;;;;;;5082062;28;20659;-63
2024/03/13 00:39:44;;;;;;;2.08;1.58;;;21.10;71.70;;;;;;5087895;28;20189;-63
2024/03/13 00:42:13;;;;;;;2.05;1.83;;;21.00;71.60;;;;;;5082245;27;20197;-63
2024/03/13 00:44:40;;;;;;;3.25;2.13;;;21.00;72.30;;;;;;5081521;27;20637;-63
2024/03/13 00:47:06;;;;;;;1.75;1.65;;;21.00;72.30;;;;;;5084162;28;20488;-63
2024/03/13 00:49:33;;;;;;;1.60;1.50;;;20.90;71.40;;;;;;5084869;28;20207;-63
2024/03/13 00:52:00;;;;;;;4.45;1.70;;;21.00;71.50;;;;;;5087537;28;20216;-63
2024/03/13 00:54:28;;;;;;;1.83;1.73;;;21.10;71.60;;;;;;5085976;28;20196;-63
2024/03/13 00:56:56;;;;;;;1.98;1.55;;;21.00;71.40;;;;;;5086475;28;20623;-63
2024/03/13 00:59:26;;;;;;;2.15;1.83;;;21.00;71.50;;;;;;5083773;28;20190;-64
2024/03/13 01:01:55;;;;;;;2.28;1.92;;;21.00;71.40;;;;;;5083287;28;20674;-64
2024/03/13 01:04:24;;;;;;;1.90;1.50;;;20.90;71.30;;;;;;5084993;28;20310;-64
2024/03/13 01:06:51;;;;;;;1.52;1.42;;;20.90;71.40;;;;;;5081836;28;20214;-63
2024/03/13 01:09:19;;;;;;;2.35;1.90;;;20.90;71.30;;;;;;5084973;28;20636;-63
2024/03/13 01:11:46;;;;;;;1.60;1.45;;;20.90;71.40;;;;;;5080751;28;20209;-63
2024/03/13 01:14:14;;;;;;;2.20;1.80;;;20.90;71.40;;;;;;5082449;28;20291;-63
2024/03/13 01:16:42;;;;;;;2.10;1.80;;;20.90;71.40;;;;;;5083786;28;20219;-63
2024/03/13 01:19:09;;;;;;;2.10;1.90;;;20.80;71.20;;;;;;5079426;27;20550;-64
2024/03/13 01:21:36;;;;;;;2.05;1.85;;;20.90;71.20;;;;;;5078479;28;20208;-64
2024/03/13 01:24:02;;;;;;;2.05;1.70;;;21.00;71.30;;;;;;5082354;27;20518;-63
2024/03/13 01:26:34;;;;;;;2.13;1.70;;;20.90;71.20;;;;;;5080722;28;20207;-63
2024/03/13 01:29:00;;;;;;;1.75;1.65;;;20.90;71.20;;;;;;5083157;28;20193;-64
2024/03/13 01:31:27;;;;;;;1.85;1.55;;;20.90;71.20;;;;;;5083165;28;20780;-64
2024/03/13 01:33:56;;;;;;;1.88;1.67;;;20.90;71.30;;;;;;5082066;28;20283;-63
2024/03/13 01:37:55;;;;;;;3.03;1.65;;;20.90;71.30;;;;;;5079968;27;20307;-64
2024/03/13 01:39:09;;;;;;;1.92;1.60;;;20.90;71.20;;;;;;5079653;28;20240;-63
2024/03/13 01:55:35;;;;;;;2.60;1.90;;;20.80;71.10;;;;;;5084425;28;20240;-65
2024/03/13 01:58:19;;;;;;;2.03;1.92;;;20.80;71.10;;;;;;5085502;28;20197;-64
2024/03/13 02:03:31;;;;;;;2.10;1.60;;;20.90;71.20;;;;;;5078601;28;20562;-63
2024/03/13 02:06:03;;;;;;;1.83;1.73;;;20.80;71.20;;;;;;5076483;27;20204;-63
2024/03/13 02:08:32;;;;;;;1.80;1.70;;;20.80;72.00;;;;;;5076181;28;20201;-64
2024/03/13 02:10:58;;;;;;;2.00;1.80;;;20.80;71.10;;;;;;5078000;28;21063;-63
2024/03/13 02:13:25;;;;;;;1.70;1.50;;;20.80;71.20;;;;;;5077639;28;20197;-63
2024/03/13 02:15:53;;;;;;;2.35;1.80;;;20.80;71.20;;;;;;5078402;28;20283;-63
2024/03/13 02:18:21;;;;;;;2.00;1.80;;;20.70;71.10;;;;;;5078017;28;20194;-64
2024/03/13 02:20:50;;;;;;;1.95;1.67;;;20.70;71.10;;;;;;5066016;28;20215;-64
2024/03/13 02:23:21;;;;;;;2.05;1.85;;;20.70;71.10;;;;;;5072584;28;20200;-64
2024/03/13 02:25:51;;;;;;;1.88;1.70;;;20.70;71.00;;;;;;5062612;28;20201;-64
2024/03/13 02:28:18;;;;;;;1.70;1.60;;;20.70;71.10;;;;;;5062127;28;20209;-64
2024/03/13 02:30:45;;;;;;;1.65;1.50;;;20.70;71.10;;;;;;5081411;28;20193;-63
2024/03/13 02:33:12;;;;;;;1.80;1.70;;;20.70;71.10;;;;;;5058852;28;21222;-65
2024/03/13 02:35:40;;;;;;;1.50;1.40;;;20.70;71.00;;;;;;5087690;28;20205;-64
2024/03/13 02:38:07;;;;;;;1.30;1.10;;;20.70;71.00;;;;;;5079372;28;20678;-63
2024/03/13 02:40:34;;;;;;;1.70;1.42;;;20.70;70.90;;;;;;5063861;28;20202;-63
2024/03/13 02:43:01;;;;;;;1.80;1.70;;;20.70;71.10;;;;;;5064749;28;20208;-63
2024/03/13 02:45:28;;;;;;;1.88;1.77;;;20.70;71.10;;;;;;5065434;28;20199;-63
2024/03/13 02:47:55;;;;;;;1.90;1.70;;;20.70;71.10;;;;;;5077181;28;20201;-63
2024/03/13 02:50:22;;;;;;;2.45;2.17;;;20.80;71.20;;;;;;5063788;28;20620;-64
2024/03/13 02:52:49;;;;;;;1.70;1.50;;;20.70;71.10;;;;;;5078579;28;20221;-63
2024/03/13 02:55:16;;;;;;;1.75;1.65;;;20.60;71.00;;;;;;5081572;28;20224;-63
2024/03/13 02:57:44;;;;;;;1.92;1.65;;;20.60;71.00;;;;;;5081635;28;20196;-64
2024/03/13 03:00:12;;;;;;;2.15;1.77;;;20.60;71.00;;;;;;5081861;28;20200;-63
2024/03/13 03:02:40;;;;;;;1.73;1.50;;;20.60;71.00;;;;;;5081314;28;20587;-64
2024/03/13 03:05:07;;;;;;;1.88;1.70;;;20.60;71.00;;;;;;5064519;28;20197;-63
2024/03/13 03:07:34;;;;;;;2.25;1.90;;;20.60;70.90;;;;;;5078282;28;20735;-64
2024/03/13 03:10:01;;;;;;;1.85;1.58;;;20.60;71.00;;;;;;5082164;27;20595;-64
2024/03/13 03:12:27;;;;;;;2.47;1.92;;;20.60;71.10;;;;;;5083442;28;20296;-63
2024/03/13 03:14:55;;;;;;;2.55;2.35;;;20.60;71.10;;;;;;5068861;28;20195;-63
2024/03/13 03:17:22;;;;;;;1.80;1.55;;;20.60;71.10;;;;;;5083190;28;20335;-63
2024/03/13 03:19:49;;;;;;;1.60;1.50;;;20.60;71.00;;;;;;5080764;27;20208;-64
2024/03/13 03:22:17;;;;;;;2.00;1.77;;;20.60;71.10;;;;;;5078618;28;20824;-64
2024/03/13 03:24:44;;;;;;;2.45;1.75;;;20.60;71.00;;;;;;5086159;28;20684;-64
2024/03/13 03:27:11;;;;;;;1.90;1.75;;;20.60;71.00;;;;;;5086300;28;20752;-63
2024/03/13 03:29:38;;;;;;;2.55;1.80;;;20.60;71.90;;;;;;5083675;28;20405;-64
2024/03/13 03:32:06;;;;;;;2.25;1.70;;;20.60;71.00;;;;;;5087358;28;20594;-64
2024/03/13 03:34:33;;;;;;;2.35;1.88;;;20.60;71.00;;;;;;5086087;28;20282;-63
2024/03/13 03:37:01;;;;;;;1.80;1.70;;;20.60;71.00;;;;;;5066896;28;20192;-63
2024/03/13 03:39:29;;;;;;;1.85;1.50;;;20.60;71.00;;;;;;5085143;28;20667;-63
2024/03/13 03:41:56;;;;;;;2.08;1.73;;;20.60;71.10;;;;;;5068235;28;20269;-64
2024/03/13 03:44:23;;;;;;;1.70;1.40;;;20.60;71.10;;;;;;5080731;28;20282;-64
2024/03/13 03:46:50;;;;;;;1.70;1.52;;;20.50;71.00;;;;;;5064556;28;20193;-63
2024/03/13 03:49:17;;;;;;;1.60;1.50;;;20.50;70.90;;;;;;5082464;28;20559;-63
2024/03/13 03:51:44;;;;;;;1.83;1.73;;;20.50;70.80;;;;;;5067047;28;20208;-63
2024/03/13 03:54:11;;;;;;;1.88;1.35;;;20.50;70.90;;;;;;5086396;28;20277;-63
2024/03/13 03:56:39;;;;;;;1.60;1.50;;;20.50;70.90;;;;;;5067962;28;20213;-64
2024/03/13 03:59:07;;;;;;;2.38;1.58;;;20.50;71.00;;;;;;5070186;28;20356;-64
2024/03/13 04:01:33;;;;;;;1.80;1.70;;;20.50;71.20;;;;;;5084064;28;20288;-63
2024/03/13 04:04:00;;;;;;;1.80;1.70;;;20.50;70.90;;;;;;5078143;28;20198;-64
2024/03/13 04:06:27;;;;;;;1.63;1.48;;;20.50;71.00;;;;;;5079794;27;20239;-64
2024/03/13 04:08:54;;;;;;;1.92;1.65;;;20.50;70.90;;;;;;5065936;28;20194;-64
2024/03/13 04:11:21;;;;;;;2.03;1.70;;;20.50;70.90;;;;;;5082251;27;20205;-63
2024/03/13 04:13:48;;;;;;;1.75;1.63;;;20.50;71.00;;;;;;5082338;28;20220;-64
2024/03/13 04:16:16;;;;;;;1.90;1.70;;;20.50;70.90;;;;;;5083756;28;20205;-64
2024/03/13 04:18:44;;;;;;;2.30;2.08;;;20.50;70.90;;;;;;5085138;28;20285;-63
2024/03/13 04:21:10;;;;;;;1.75;1.65;;;20.50;71.00;;;;;;5085242;28;20855;-64
2024/03/13 04:23:38;;;;;;;1.50;1.35;;;20.50;70.80;;;;;;5063272;28;20196;-63
2024/03/13 04:26:05;;;;;;;2.38;2.17;;;20.30;71.40;;;;;;5087706;27;20292;-64
2024/03/13 04:28:32;;;;;;;1.95;1.73;;;20.50;70.90;;;;;;5068929;28;20193;-64
2024/03/13 04:31:01;;;;;;;1.60;1.50;;;20.50;71.00;;;;;;5068572;28;20197;-64
2024/03/13 04:33:28;;;;;;;2.10;1.77;;;20.50;71.00;;;;;;5065956;28;20221;-63
2024/03/13 04:35:56;;;;;;;1.50;1.40;;;20.50;70.90;;;;;;5080128;28;20204;-64
2024/03/13 04:38:23;;;;;;;1.75;1.52;;;20.40;70.90;;;;;;5080416;28;20221;-64
2024/03/13 04:40:50;;;;;;;1.50;1.23;;;20.40;70.90;;;;;;5085509;28;20565;-63
2024/03/13 04:43:17;;;;;;;1.60;1.50;;;20.30;70.80;;;;;;5087694;28;20192;-63
2024/03/13 04:45:44;;;;;;;1.60;1.50;;;20.40;70.80;;;;;;5081236;28;20193;-64
2024/03/13 04:48:13;;;;;;;2.08;1.73;;;20.40;70.80;;;;;;5086667;28;20217;-63
2024/03/13 04:50:39;;;;;;;2.30;1.88;;;20.40;70.80;;;;;;5087349;28;20201;-64
2024/03/13 04:53:06;;;;;;;1.73;1.38;;;20.40;70.80;;;;;;5081054;27;20698;-64
2024/03/13 04:55:33;;;;;;;1.60;1.50;;;20.40;70.80;;;;;;5086412;28;20198;-64
2024/03/13 04:58:00;;;;;;;1.40;1.25;;;20.60;71.00;;;;;;5075336;28;20216;-63
2024/03/13 05:00:27;;;;;;;1.50;1.40;;;20.40;70.90;;;;;;5064577;28;20231;-65
2024/03/13 05:02:55;;;;;;;1.98;1.75;;;20.40;70.80;;;;;;5088093;28;20196;-64
2024/03/13 05:05:21;;;;;;;2.28;2.08;;;20.40;70.90;;;;;;5068520;28;20308;-63
2024/03/13 05:07:48;;;;;;;1.65;1.42;;;20.40;70.90;;;;;;5082716;28;20553;-63
2024/03/13 05:10:16;;;;;;;1.70;1.58;;;20.40;70.80;;;;;;5066597;28;20200;-64
2024/03/13 05:12:43;;;;;;;1.60;1.50;;;20.40;70.90;;;;;;5085855;28;20244;-64
2024/03/13 05:15:10;;;;;;;1.65;1.50;;;20.40;70.90;;;;;;5080779;28;20689;-63
2024/03/13 05:17:38;;;;;;;1.60;1.50;;;20.40;70.90;;;;;;5084434;27;20687;-65
2024/03/13 05:20:07;;;;;;;1.50;1.40;;;20.40;70.90;;;;;;5068327;28;20913;-63
2024/03/13 05:22:34;;;;;;;1.70;1.52;;;20.40;70.80;;;;;;5066541;28;20194;-64
2024/03/13 05:25:01;;;;;;;1.40;1.30;;;20.40;70.80;;;;;;5080274;28;20208;-64
2024/03/13 05:27:28;;;;;;;1.80;1.70;;;20.40;70.90;;;;;;5059333;28;20224;-63
2024/03/13 05:29:56;;;;;;;1.70;1.40;;;20.40;70.90;;;;;;5080626;28;20198;-64
2024/03/13 05:32:23;;;;;;;1.30;1.20;;;20.40;70.80;;;;;;5079536;28;20316;-64
2024/03/13 05:34:50;;;;;;;1.70;1.60;;;20.40;70.90;;;;;;5074293;28;20198;-63
2024/03/13 05:37:17;;;;;;;1.92;1.45;;;20.40;70.90;;;;;;5077439;28;20765;-64
2024/03/13 05:39:44;;;;;;;1.67;1.58;;;20.40;70.90;;;;;;5066364;28;20196;-64
2024/03/13 05:42:11;;;;;;;1.80;1.42;;;20.40;70.80;;;;;;5064112;28;20201;-64
2024/03/13 05:44:39;;;;;;;1.75;1.48;;;20.30;70.80;;;;;;5066023;28;20193;-64
2024/03/13 05:47:06;;;;;;;1.55;1.42;;;20.30;70.80;;;;;;5060088;28;20201;-64
2024/03/13 05:49:33;;;;;;;1.52;1.23;;;20.30;70.80;;;;;;5082469;28;20329;-64
2024/03/13 05:52:00;;;;;;;1.70;1.60;;;20.20;70.70;;;;;;5060985;28;20196;-64
2024/03/13 05:54:28;;;;;;;1.48;1.27;;;20.30;70.80;;;;;;5062739;28;20213;-64
2024/03/13 05:56:55;;;;;;;1.70;1.60;;;20.40;71.00;;;;;;5066829;28;20207;-64
2024/03/13 05:59:21;;;;;;;1.65;1.30;;;20.30;70.80;;;;;;5080012;28;20208;-64
2024/03/13 06:01:48;;;;;;;1.77;1.60;;;20.30;70.80;;;;;;5079965;28;20658;-64
2024/03/13 06:04:16;;;;;;;1.95;1.85;;;20.30;70.90;;;;;;5062267;28;20213;-65
2024/03/13 06:06:43;;;;;;;1.70;1.42;;;20.30;70.80;;;;;;5062995;28;20228;-63
2024/03/13 06:09:10;;;;;;;1.63;1.52;;;20.30;70.80;;;;;;5080030;28;20324;-65
2024/03/13 06:11:37;;;;;;;1.60;1.30;;;20.30;70.90;;;;;;5078408;28;20196;-64
2024/03/13 06:14:04;;;;;;;1.98;1.75;;;20.30;70.90;;;;;;5080842;28;20237;-63
2024/03/13 06:16:31;;;;;;;1.48;1.25;;;20.30;70.90;;;;;;5060546;28;20588;-64
2024/03/13 06:18:58;;;;;;;1.50;1.40;;;20.30;70.80;;;;;;5065300;28;20285;-64
2024/03/13 06:21:25;;;;;;;2.05;1.85;;;20.30;70.80;;;;;;5066675;28;20216;-64
2024/03/13 06:23:58;;;;;;;1.70;1.60;;;20.20;70.80;;;;;;5061021;28;20193;-65
2024/03/13 06:26:27;;;;;;;1.80;1.65;;;20.30;70.80;;;;;;5052893;28;20200;-64
2024/03/13 06:31:39;;;;;;;1.60;1.40;;;20.30;70.90;;;;;;5067159;28;20402;-63
2024/03/13 06:34:08;;;;;;;1.60;1.40;;;20.30;70.80;;;;;;5069275;28;20213;-63
2024/03/13 06:36:36;;;;;;;3.55;1.80;;;20.30;70.80;;;;;;5076198;28;20278;-64
2024/03/13 06:39:03;;;;;;;1.42;1.33;;;20.20;70.70;;;;;;5078557;28;20242;-64
2024/03/13 06:41:30;;;;;;;1.50;1.20;;;20.20;70.70;;;;;;5081161;28;20193;-64
2024/03/13 06:43:57;;;;;;;1.45;1.33;;;20.30;70.90;;;;;;5064931;28;20260;-64
2024/03/13 06:46:24;;;;;;;4.78;1.85;;;20.20;70.70;;;;;;5078956;28;20197;-63
2024/03/13 06:48:51;;;;;;;2.00;1.60;;;20.30;71.00;;;;;;5062935;28;20727;-68
2024/03/13 06:51:18;;;;;;;2.88;1.20;;;20.30;71.00;;;;;;5062632;28;20409;-65
2024/03/13 06:53:45;;;;;;;1.60;1.50;;;20.50;71.50;;;;;;5078223;28;20231;-64
2024/03/13 06:56:12;;;;;;;8.93;1.50;;;20.30;71.50;;;;;;5058632;28;20542;-65
2024/03/13 06:58:38;;;;;;;1.55;1.27;;;20.30;71.40;;;;;;5061792;28;20197;-64
2024/03/13 07:01:12;;;;;;;2.42;1.77;;;20.30;72.20;;;;;;5065626;28;20199;-64
2024/03/13 07:03:39;;;;;;;1.73;1.40;;;20.10;71.20;;;;;;5030455;28;20201;-64
2024/03/13 07:06:06;;;;;;;1.55;1.45;;;20.30;71.50;;;;;;5061305;27;20200;-65
2024/03/13 07:08:35;;;;;;;2.15;1.67;;;20.30;71.50;;;;;;5052597;28;20193;-66
2024/03/13 07:11:04;;;;;;;1.75;1.33;;;20.30;71.80;;;;;;5080170;28;20197;-70
2024/03/13 07:13:32;;;;;;;1.30;1.17;;;20.30;72.00;;;;;;5075616;27;20896;-71
2024/03/13 07:15:59;;;;;;;1.75;1.50;;;20.20;72.10;;;;;;5075377;28;20225;-70
2024/03/13 07:18:27;;;;;;;1.70;1.30;;;20.30;72.50;;;;;;5081742;27;20192;-70
2024/03/13 07:20:54;;;;;;;1.38;1.27;;;20.20;72.40;;;;;;5070237;28;20213;-67
2024/03/13 07:23:21;;;;;;;1.45;1.33;;;20.30;72.70;;;;;;5061504;28;20205;-68
2024/03/13 07:25:49;;;;;;;1.85;1.52;;;20.20;72.70;;;;;;5077510;28;20200;-68
2024/03/13 07:28:16;;;;;;;2.03;1.90;;;20.30;72.90;;;;;;5073331;28;20200;-66
2024/03/13 07:30:43;;;;;;;1.60;1.33;;;20.30;72.90;;;;;;5074680;28;20795;-65
2024/03/13 07:33:12;;;;;;;1.55;1.45;;;20.40;73.00;;;;;;5076650;28;20224;-68
2024/03/13 07:35:39;;;;;;;2.85;1.40;;;20.40;73.30;;;;;;5059638;28;20204;-68
2024/03/13 07:38:09;;;;;;;1.48;1.38;;;20.40;73.50;;;;;;5053834;28;20285;-71
2024/03/13 07:40:37;;;;;;;3.15;1.90;;;20.40;73.50;;;;;;5074579;28;20198;-67
2024/03/13 07:43:04;;;;;;;1.20;0.95;;;20.50;73.70;;;;;;5058235;28;20204;-67
2024/03/13 07:45:31;;;;;;;1.40;1.30;;;20.50;73.50;;;;;;5070494;28;20194;-68
2024/03/13 07:47:58;;;;;;;1.60;1.50;;;20.60;73.50;;;;;;5058282;28;20200;-67
2024/03/13 07:50:25;;;;;;;1.67;1.27;;;20.60;73.20;;;;;;5071015;28;20188;-67
2024/03/13 07:52:52;;;;;;;1.80;1.30;;;20.50;73.10;;;;;;5080925;28;20709;-65
2024/03/13 07:55:19;;;;;;;1.50;1.27;;;20.60;73.10;;;;;;5072156;28;20208;-67
2024/03/13 07:57:45;;;;;;;1.50;1.25;;;20.80;73.30;;;;;;5069380;28;20188;-66
2024/03/13 08:00:14;;;;;;;1.30;1.08;;;20.70;73.10;;;;;;5065018;28;20284;-67
2024/03/13 08:02:43;;;;;;;1.45;1.20;;;20.70;73.00;;;;;;5068196;28;20444;-67
2024/03/13 08:05:10;;;;;;;1.65;1.20;;;20.80;73.70;;;;;;5079781;28;20232;-65
2024/03/13 08:07:37;;;;;;;1.42;1.20;;;20.80;72.90;;;;;;5054127;28;20647;-67
2024/03/13 08:10:05;;;;;;;1.40;1.30;;;20.80;72.70;;;;;;5063174;28;20300;-67
2024/03/13 08:12:35;;;;;;;1.40;1.20;;;20.80;72.60;;;;;;5083851;28;20384;-67
2024/03/13 08:15:02;;;;;;;1.60;1.37;;;20.80;72.50;;;;;;5081755;27;20661;-68
2024/03/13 08:17:29;;;;;;;1.60;1.35;;;20.90;72.60;;;;;;5056486;28;20985;-66
2024/03/13 08:19:56;;;;;;;1.73;1.35;;;20.90;72.50;;;;;;5083498;28;20775;-66
2024/03/13 08:22:22;;;;;;;1.50;1.10;;;20.90;72.30;;;;;;5057749;28;20338;-64
2024/03/13 08:24:50;;;;;;;1.73;1.50;;;20.80;72.10;;;;;;5065523;28;20203;-65
2024/03/13 08:27:17;;;;;;;1.52;1.30;;;20.90;72.10;;;;;;5079550;28;20212;-64
2024/03/13 08:29:43;;;;;;;2.08;1.40;;;20.90;72.10;;;;;;5081986;27;20283;-65
2024/03/13 08:32:10;;;;;;;1.50;1.40;;;21.00;72.10;;;;;;5079677;28;20612;-64
2024/03/13 08:34:37;;;;;;;1.40;1.20;;;21.00;72.00;;;;;;5070506;28;20489;-65
2024/03/13 08:37:04;;;;;;;2.75;1.17;;;21.00;71.90;;;;;;5060870;28;20469;-67
2024/03/13 08:39:31;;;;;;;1.45;1.23;;;21.00;71.80;;;;;;5055847;28;20646;-66
2024/03/13 08:41:58;;;;;;;1.33;1.23;;;21.00;71.80;;;;;;5060603;28;20201;-64
2024/03/13 08:44:25;;;;;;;1.75;1.20;;;21.00;71.70;;;;;;5076335;28;20463;-68
2024/03/13 08:46:52;;;;;;;1.40;1.30;;;21.00;71.70;;;;;;5079538;27;20231;-64
2024/03/13 08:49:18;;;;;;;1.88;1.70;;;21.00;71.60;;;;;;5082660;28;20444;-63
2024/03/13 08:51:45;;;;;;;1.48;1.38;;;21.00;71.50;;;;;;5079353;27;20189;-64
2024/03/13 08:54:12;;;;;;;1.45;1.20;;;21.00;71.50;;;;;;5058823;28;20774;-64
2024/03/13 08:56:39;;;;;;;1.65;1.38;;;21.00;71.40;;;;;;5063952;28;20196;-66
2024/03/13 08:59:06;;;;;;;1.45;1.35;;;21.00;71.30;;;;;;5079758;27;20205;-64
2024/03/13 09:01:33;;;;;;;1.67;1.30;;;21.00;71.30;;;;;;5077039;28;20190;-67
2024/03/13 09:04:00;;;;;;;1.60;1.13;;;21.00;71.20;;;;;;5061966;28;20314;-65
2024/03/13 09:06:26;;;;;;;1.50;1.35;;;21.00;71.20;;;;;;5070997;28;20255;-66
2024/03/13 09:08:53;;;;;;;1.37;1.13;;;21.00;71.20;;;;;;5077038;28;20201;-67
2024/03/13 09:11:20;;;;;;;1.40;1.17;;;21.10;71.30;;;;;;5077465;28;26780;-65
2024/03/13 09:13:47;;;;;;;1.40;1.30;;;21.00;71.00;;;;;;5078264;28;20225;-65
2024/03/13 09:16:14;;;;;;;1.70;1.50;;;21.00;71.10;;;;;;5071004;28;20189;-65
2024/03/13 09:18:41;;;;;;;1.63;1.30;;;21.20;71.30;;;;;;5062306;28;20202;-64
2024/03/13 09:21:08;;;;;;;1.58;1.10;;;21.00;71.00;;;;;;5064993;28;20208;-65
2024/03/13 09:23:34;;;;;;;1.35;1.15;;;21.00;71.00;;;;;;5078276;28;20190;-64
2024/03/13 09:26:01;;;;;;;1.38;1.20;;;21.10;71.20;;;;;;5080673;28;20204;-66
2024/03/13 09:28:28;;;;;;;1.30;1.20;;;21.10;71.20;;;;;;5077729;28;20297;-65
2024/03/13 09:30:55;;;;;;;1.48;1.35;;;21.10;71.10;;;;;;5063533;28;20200;-65
2024/03/13 09:33:22;;;;;;;1.87;1.40;;;21.10;71.10;;;;;;5057650;28;20689;-66
2024/03/13 09:35:49;;;;;;;1.40;1.20;;;21.10;71.10;;;;;;5064260;28;20451;-66
2024/03/13 09:38:17;;;;;;;1.30;1.00;;;21.10;71.00;;;;;;5065332;28;20197;-67
2024/03/13 09:40:44;;;;;;;1.30;1.20;;;21.10;71.00;;;;;;5063449;28;20193;-64
2024/03/13 09:43:11;;;;;;;1.30;1.20;;;21.10;71.00;;;;;;5085233;27;20202;-64
2024/03/13 09:45:38;;;;;;;3.00;1.67;;;21.10;71.00;;;;;;5079962;27;20468;-66
2024/03/13 09:48:06;;;;;;;1.10;0.90;;;21.10;71.00;;;;;;5075754;28;20631;-65
2024/03/13 09:50:33;;;;;;;3.70;1.30;;;21.10;71.20;;;;;;5065384;28;20201;-65
2024/03/13 09:53:00;;;;;;;1.30;1.20;;;21.20;71.30;;;;;;5081099;28;20201;-66
2024/03/13 09:55:27;;;;;;;1.60;1.50;;;21.10;71.20;;;;;;5080571;28;20213;-65
2024/03/13 09:57:55;;;;;;;1.97;1.20;;;21.10;71.30;;;;;;5082407;28;20197;-65
2024/03/13 10:00:23;;;;;;;1.10;0.98;;;21.10;71.20;;;;;;5085731;28;20462;-70
2024/03/13 10:02:50;;;;;;;4.13;1.27;;;21.10;71.30;;;;;;5075437;28;20202;-64
2024/03/13 10:05:18;;;;;;;2.20;1.60;;;21.20;71.40;;;;;;5080573;28;20288;-64
2024/03/13 10:07:44;;;;;;;1.60;1.30;;;21.20;71.50;;;;;;5060056;28;21049;-63
2024/03/13 10:10:16;;;;;;;1.30;1.17;;;21.20;71.80;;;;;;5069206;28;20197;-66
2024/03/13 10:12:43;;;;;;;8.45;1.50;;;21.20;71.90;;;;;;5083316;28;20350;-65
2024/03/13 10:15:10;;;;;;;1.25;1.08;;;21.20;72.10;;;;;;5081524;28;20726;-66
2024/03/13 10:17:37;;;;;;;1.10;1.00;;;21.10;72.10;;;;;;5084277;28;20682;-66
2024/03/13 10:20:08;;;;;;;1.65;0.98;;;21.20;73.10;;;;;;5092837;28;20204;-63
2024/03/13 10:22:35;;;;;;;1.50;1.20;;;21.30;72.70;;;;;;5079657;28;20313;-68
2024/03/13 10:25:02;;;;;;;1.40;1.30;;;21.30;72.90;;;;;;5066560;28;21284;-66
2024/03/13 10:27:29;;;;;;;1.90;1.67;;;21.30;72.90;;;;;;5079207;28;20501;-67
2024/03/13 10:29:56;;;;;;;1.98;1.15;;;21.30;73.00;;;;;;5064996;28;20208;-73
2024/03/13 10:32:24;;;;;;;1.88;1.10;;;21.30;72.90;;;;;;5072794;28;20313;-66
2024/03/13 10:34:52;;;;;;;2.83;1.42;;;21.30;73.00;;;;;;5073406;28;20307;-70
2024/03/13 10:37:18;;;;;;;1.45;1.35;;;21.30;73.00;;;;;;5063770;28;20270;-73
2024/03/13 10:39:45;;;;;;;1.23;1.13;;;21.40;73.00;;;;;;5079143;28;20681;-69
2024/03/13 10:42:12;;;;;;;1.40;1.30;;;21.40;73.10;;;;;;5071462;28;21155;-78
2024/03/13 10:44:40;;;;;;;1.37;1.10;;;21.40;73.80;;;;;;5079616;28;20224;-68
2024/03/13 10:47:08;;;;;;;1.13;1.03;;;21.40;73.20;;;;;;5068793;28;20463;-67
2024/03/13 10:49:34;;;;;;;1.50;1.10;;;21.40;73.10;;;;;;5061046;28;21007;-69
2024/03/13 10:52:05;;;;;;;1.73;1.35;;;21.50;73.20;;;;;;5056019;28;20490;-72
2024/03/13 10:54:34;;;;;;;1.40;1.17;;;21.50;73.30;;;;;;5077373;28;20217;-71
2024/03/13 10:57:01;;;;;;;1.50;1.17;;;21.50;73.20;;;;;;5071966;28;20462;-71
2024/03/13 10:59:29;;;;;;;1.30;1.20;;;21.50;73.30;;;;;;5061324;28;20458;-70
2024/03/13 11:01:56;;;;;;;1.70;1.20;;;21.50;73.30;;;;;;5077172;28;20205;-65
2024/03/13 11:04:23;;;;;;;1.20;1.07;;;21.60;73.40;;;;;;5078636;28;20511;-68
2024/03/13 11:06:50;;;;;;;1.50;1.30;;;21.60;73.40;;;;;;5076579;28;20460;-71
2024/03/13 11:09:20;;;;;;;1.30;1.00;;;21.60;73.30;;;;;;5076456;28;20462;-72
2024/03/13 11:11:49;;;;;;;1.40;1.03;;;21.60;73.30;;;;;;5079260;28;20464;-66
2024/03/13 11:14:17;;;;;;;2.23;1.30;;;21.60;73.30;;;;;;5058290;28;20463;-64
2024/03/13 11:16:44;;;;;;;1.23;1.13;;;21.60;73.40;;;;;;5057672;28;20735;-70
2024/03/13 11:19:11;;;;;;;1.30;1.10;;;21.60;73.50;;;;;;5069193;28;20992;-73
2024/03/13 11:21:38;;;;;;;2.63;1.00;;;21.60;73.70;;;;;;5073684;28;20458;-64
2024/03/13 11:24:06;;;;;;;2.10;1.20;;;21.60;73.70;;;;;;5056960;28;20464;-63
2024/03/13 11:26:33;;;;;;;1.50;1.10;;;21.60;73.70;;;;;;5066382;28;20472;-65
2024/03/13 11:29:00;;;;;;;4.03;1.20;;;21.70;73.70;;;;;;5080638;28;20459;-67
2024/03/13 11:31:27;;;;;;;2.22;1.05;;;21.70;73.70;;;;;;5080045;28;20853;-70
2024/03/13 11:33:54;;;;;;;1.33;1.10;;;21.70;73.80;;;;;;5065237;28;20209;-64
2024/03/13 11:36:21;;;;;;;1.20;1.03;;;21.80;73.90;;;;;;5075105;28;21070;-70
2024/03/13 11:38:48;;;;;;;1.53;1.27;;;21.80;73.90;;;;;;5064462;28;20996;-68
2024/03/13 11:41:15;;;;;;;1.20;1.10;;;21.80;73.80;;;;;;5084919;27;20452;-71
2024/03/13 11:43:42;;;;;;;1.27;1.17;;;21.80;73.80;;;;;;5087214;28;20454;-74
2024/03/13 11:46:11;;;;;;;1.37;1.17;;;21.90;73.90;;;;;;5060653;28;20454;-63
2024/03/13 11:48:39;;;;;;;1.33;0.90;;;21.90;73.90;;;;;;5083863;28;20466;-62
2024/03/13 11:51:07;;;;;;;1.20;0.90;;;21.90;73.80;;;;;;5064220;28;21076;-62
2024/03/13 11:53:34;;;;;;;1.23;1.13;;;21.90;74.60;;;;;;5075866;28;20451;-64
2024/03/13 11:56:01;;;;;;;1.10;0.90;;;22.00;74.00;;;;;;5068480;28;20474;-63
2024/03/13 11:58:30;;;;;;;3.20;1.10;;;21.80;73.60;;;;;;5087219;27;20516;-69
2024/03/13 12:00:57;;;;;;;1.40;1.03;;;21.90;73.70;;;;;;5090098;28;20480;-67
2024/03/13 12:03:30;;;;;;;1.10;0.93;;;22.00;73.70;;;;;;5083616;27;20905;-64
2024/03/13 12:05:59;;;;;;;1.47;1.37;;;22.00;73.80;;;;;;5072122;28;20934;-66
2024/03/13 12:08:27;;;;;;;1.77;1.03;;;22.00;73.70;;;;;;5070790;28;20824;-65
2024/03/13 12:10:54;;;;;;;2.37;1.10;;;22.10;73.70;;;;;;5079003;27;20466;-64
2024/03/13 12:13:21;;;;;;;2.50;1.10;;;22.00;73.60;;;;;;5061207;28;20822;-65
2024/03/13 12:15:48;;;;;;;1.40;1.20;;;22.00;73.50;;;;;;5080041;28;20477;-65
2024/03/13 12:18:16;;;;;;;1.70;1.20;;;22.00;73.50;;;;;;5057907;28;20485;-64
2024/03/13 12:20:43;;;;;;;1.40;1.30;;;22.00;73.40;;;;;;5089426;28;20957;-66
2024/03/13 12:23:12;;;;;;;1.10;1.00;;;22.00;73.50;;;;;;5085755;28;20459;-66
2024/03/13 12:25:40;;;;;;;1.50;0.97;;;22.00;73.50;;;;;;5074810;28;20462;-64
2024/03/13 12:28:12;;;;;;;2.00;1.10;;;22.00;73.50;;;;;;5078388;28;20736;-66
2024/03/13 12:30:39;;;;;;;1.40;1.30;;;22.10;73.60;;;;;;5084145;28;20427;-65
2024/03/13 12:33:06;;;;;;;1.57;1.20;;;22.00;73.30;;;;;;5067386;28;21111;-64
2024/03/13 12:35:33;;;;;;;1.90;1.10;;;22.10;73.50;;;;;;5081686;28;20582;-65
2024/03/13 12:38:01;;;;;;;1.40;1.10;;;22.10;73.40;;;;;;5075282;28;21045;-64
2024/03/13 12:40:27;;;;;;;3.07;1.50;;;22.10;73.50;;;;;;5079732;28;20462;-62
2024/03/13 12:42:54;;;;;;;2.57;1.10;;;22.00;74.10;;;;;;5077215;28;23165;-65
2024/03/13 12:45:21;;;;;;;1.20;0.90;;;22.10;73.60;;;;;;5076796;28;21123;-69
2024/03/13 12:47:48;;;;;;;2.30;0.90;;;22.10;73.60;;;;;;5062127;28;20822;-63
2024/03/13 12:50:15;;;;;;;1.63;1.00;;;22.10;73.60;;;;;;5079309;28;21435;-63
2024/03/13 12:52:44;;;;;;;1.30;0.90;;;22.00;73.50;;;;;;5076720;28;20487;-64
2024/03/13 12:55:12;;;;;;;1.77;1.10;;;22.10;73.60;;;;;;5077908;28;20518;-63
2024/03/13 12:57:39;;;;;;;3.40;1.30;;;22.30;73.80;;;;;;5078971;27;20459;-67
2024/03/13 13:00:13;;;;;;;1.30;1.10;;;22.10;73.50;;;;;;5076407;28;20460;-68
2024/03/13 13:02:40;;;;;;;1.67;1.20;;;22.20;73.60;;;;;;5057261;28;20567;-66
2024/03/13 13:05:08;;;;;;;5.70;1.30;;;22.20;73.60;;;;;;5063161;28;21300;-66
2024/03/13 13:07:35;;;;;;;1.23;0.87;;;22.20;73.60;;;;;;5076067;28;20565;-67